Time;durP1;ratioP1;P1;durP2;ratioP2;P2;SDS_P1;SDS_P2;PMS_P1;PMS_P2;Temp;Humidity;BMP_temperature;BMP_pressure;BME280_temperature;BME280_humidity;BME280_pressure;Samples;Min_cycle;Max_cycle;Signal;HPM_P1;HPM_P2
2022/07/18 00:01:06;;;;;;;3.65;0.90;;;;;;;20.69;32.54;100500.31;12204554;19;20002;-79
2022/07/18 00:05:08;;;;;;;3.60;1.00;;;;;;;20.66;32.71;100495.31;12218870;19;20736;-79
2022/07/18 00:09:09;;;;;;;7.65;1.00;;;;;;;20.63;32.93;100495.91;12224506;19;20078;-78
2022/07/18 00:13:11;;;;;;;3.45;1.20;;;;;;;20.60;33.05;100495.69;12186063;19;20521;-77
2022/07/18 00:17:13;;;;;;;2.38;0.80;;;;;;;20.56;32.97;100503.84;12209810;19;20006;-78
2022/07/18 00:21:16;;;;;;;6.28;1.40;;;;;;;20.49;33.11;100504.19;12197736;19;20027;-78
2022/07/18 00:25:17;;;;;;;3.70;1.15;;;;;;;20.40;33.71;100500.34;12187179;19;20031;-78
2022/07/18 00:29:19;;;;;;;3.10;1.20;;;;;;;20.27;33.99;100499.13;12208019;19;20010;-78
2022/07/18 00:33:21;;;;;;;3.47;1.00;;;;;;;20.10;34.46;100495.13;12207077;19;20532;-77
2022/07/18 00:37:23;;;;;;;3.88;1.20;;;;;;;19.96;34.89;100489.44;12193231;19;20011;-79
2022/07/18 00:41:25;;;;;;;4.47;1.55;;;;;;;19.79;35.16;100490.69;12224333;19;20018;-79
2022/07/18 00:45:26;;;;;;;3.70;1.10;;;;;;;19.67;35.54;100492.22;12190038;19;20043;-79
2022/07/18 00:49:29;;;;;;;3.03;1.20;;;;;;;19.51;35.81;100489.53;12219708;19;20058;-79
2022/07/18 00:53:31;;;;;;;4.47;1.55;;;;;;;19.36;36.11;100486.84;12216056;19;20516;-79
2022/07/18 00:57:33;;;;;;;4.82;1.33;;;;;;;19.22;36.85;100492.28;12193513;19;20019;-79
2022/07/18 01:01:45;;;;;;;3.78;1.23;;;;;;;19.11;36.92;100493.47;12208480;19;20107;-79
2022/07/18 01:05:47;;;;;;;2.35;0.90;;;;;;;19.02;37.38;100498.03;12221070;19;20011;-79
2022/07/18 01:09:49;;;;;;;1.52;0.80;;;;;;;18.99;37.95;100498.59;12209746;19;20658;-81
2022/07/18 01:13:50;;;;;;;3.30;1.20;;;;;;;18.98;37.49;100489.41;12221075;19;20014;-80
2022/07/18 01:17:52;;;;;;;3.00;1.10;;;;;;;19.07;37.06;100501.63;12214163;19;20455;-80
2022/07/18 01:21:54;;;;;;;2.88;1.20;;;;;;;19.20;36.30;100494.53;12211132;19;20070;-79
2022/07/18 01:25:55;;;;;;;12.98;1.27;;;;;;;19.31;36.21;100498.09;12234713;19;20015;-79
2022/07/18 01:29:57;;;;;;;3.15;1.00;;;;;;;19.39;35.89;100494.66;12238873;19;20474;-80
2022/07/18 01:34:00;;;;;;;3.25;1.10;;;;;;;19.53;35.29;100492.03;12181756;19;20014;-79
2022/07/18 01:38:02;;;;;;;;;;;;;;;19.57;35.50;100488.38;12217465;19;20019;-78
2022/07/18 01:42:06;;;;;;;4.38;1.00;;;;;;;19.62;35.36;100486.66;12212082;19;19931;-79
2022/07/18 01:46:09;;;;;;;4.57;1.13;;;;;;;19.61;35.11;100493.38;12179224;19;20074;-80
2022/07/18 01:50:13;;;;;;;2.65;1.02;;;;;;;19.58;35.31;100483.59;12210981;19;20503;-79
2022/07/18 01:54:19;;;;;;;2.17;0.80;;;;;;;19.59;35.65;100485.25;12212423;19;20015;-78
2022/07/18 01:58:21;;;;;;;2.42;1.10;;;;;;;19.63;35.31;100482.72;12192917;19;20695;-79
2022/07/18 02:02:23;;;;;;;2.80;1.27;;;;;;;19.63;35.53;100493.88;12209064;19;20579;-78
2022/07/18 02:06:25;;;;;;;4.53;1.30;;;;;;;19.65;35.67;100489.72;12182343;19;20010;-78
2022/07/18 02:10:26;;;;;;;1.40;0.82;;;;;;;19.59;35.38;100480.50;12207862;19;20094;-78
2022/07/18 02:14:29;;;;;;;3.60;1.00;;;;;;;19.66;35.46;100487.75;12208854;19;20055;-78
2022/07/18 02:18:32;;;;;;;6.70;1.17;;;;;;;19.57;35.93;100488.38;12181041;19;20401;-78
2022/07/18 02:22:41;;;;;;;4.60;1.20;;;;;;;19.50;35.81;100476.69;12205820;19;20002;-78
2022/07/18 02:26:42;;;;;;;2.55;1.10;;;;;;;19.50;35.95;100476.69;12211730;19;20010;-78
2022/07/18 02:30:44;;;;;;;3.10;1.05;;;;;;;19.49;35.84;100476.97;12188779;19;20004;-77
2022/07/18 02:34:46;;;;;;;3.38;1.27;;;;;;;19.44;35.88;100477.84;12212869;19;20009;-78
2022/07/18 02:38:49;;;;;;;;;;;;;;;19.48;35.43;100473.38;12223762;19;20375;-78
2022/07/18 02:42:50;;;;;;;7.97;1.33;;;;;;;19.57;35.71;100463.22;12192330;19;20738;-78
2022/07/18 02:46:52;;;;;;;1.83;0.95;;;;;;;19.71;35.34;100471.75;12221857;19;20011;-78
2022/07/18 02:50:54;;;;;;;3.72;1.23;;;;;;;19.77;35.17;100461.34;12209966;19;20032;-78
2022/07/18 02:54:56;;;;;;;4.28;1.30;;;;;;;19.78;35.34;100463.00;12187115;19;20570;-79
2022/07/18 02:58:58;;;;;;;2.35;1.13;;;;;;;19.74;35.69;100467.53;12209848;19;20472;-79
2022/07/18 03:02:59;;;;;;;4.80;1.30;;;;;;;19.65;35.91;100472.09;12209426;19;20014;-79
2022/07/18 03:07:01;;;;;;;2.40;1.25;;;;;;;19.61;35.50;100469.03;12190936;19;20041;-79
2022/07/18 03:11:03;;;;;;;2.08;1.10;;;;;;;19.61;35.23;100459.81;12217831;19;20405;-79
2022/07/18 03:15:05;;;;;;;1.58;0.80;;;;;;;19.58;35.88;100464.03;12217294;19;20023;-79
2022/07/18 03:19:06;;;;;;;3.40;1.20;;;;;;;19.49;35.74;100468.59;12200825;19;20374;-78
2022/07/18 03:23:09;;;;;;;2.20;1.02;;;;;;;19.47;35.63;100468.88;12227243;19;20024;-78
2022/07/18 03:27:10;;;;;;;4.13;1.10;;;;;;;19.51;35.63;100477.50;12236088;19;20023;-79
2022/07/18 03:31:12;;;;;;;4.78;1.58;;;;;;;19.49;35.60;100476.97;12211845;19;20015;-78
2022/07/18 03:35:15;;;;;;;2.00;1.10;;;;;;;19.40;36.13;100484.34;12232966;19;20670;-79
2022/07/18 03:39:16;;;;;;;2.67;1.00;;;;;;;19.18;36.81;100487.56;12226671;19;20017;-78
2022/07/18 03:43:18;;;;;;;2.50;1.10;;;;;;;18.93;36.82;100494.16;12200175;19;20018;-78
2022/07/18 03:47:19;;;;;;;5.53;1.50;;;;;;;18.67;37.24;100489.53;12208005;19;20019;-79
2022/07/18 03:51:22;;;;;;;5.15;1.17;;;;;;;18.50;37.85;100496.59;12231479;19;20031;-78
2022/07/18 03:55:23;;;;;;;3.55;1.20;;;;;;;18.33;37.97;100496.97;12210248;19;20366;-78
2022/07/18 03:59:25;;;;;;;6.13;1.40;;;;;;;18.17;38.44;100496.16;12217254;19;20015;-78
2022/07/18 04:03:27;;;;;;;2.75;1.10;;;;;;;18.04;38.98;100496.75;12198517;19;20044;-79
2022/07/18 04:07:29;;;;;;;3.92;1.10;;;;;;;17.94;39.62;100498.47;12220223;19;20353;-78
2022/07/18 04:11:31;;;;;;;4.03;1.30;;;;;;;17.86;40.28;100499.03;12223937;19;20947;-78
2022/07/18 04:15:33;;;;;;;2.70;1.23;;;;;;;17.77;40.65;100503.47;12202894;19;20040;-79
2022/07/18 04:19:34;;;;;;;2.95;1.20;;;;;;;17.70;41.07;100495.41;12223813;19;20323;-78
2022/07/18 04:23:36;;;;;;;3.78;1.40;;;;;;;17.65;41.24;100500.97;12213873;19;20098;-79
2022/07/18 04:27:38;;;;;;;3.05;1.02;;;;;;;17.63;41.39;100506.00;12182269;19;20438;-78
2022/07/18 04:31:40;;;;;;;4.72;1.35;;;;;;;17.60;41.40;100500.16;12222171;19;20093;-78
2022/07/18 04:35:42;;;;;;;4.15;1.27;;;;;;;17.59;41.76;100509.63;12205134;19;20029;-79
2022/07/18 04:39:43;;;;;;;2.53;1.25;;;;;;;17.54;41.23;100502.09;12190722;19;20072;-79
2022/07/18 04:43:45;;;;;;;4.15;1.40;;;;;;;17.51;41.50;100499.88;12221153;19;20020;-79
2022/07/18 04:47:49;;;;;;;2.83;1.08;;;;;;;17.51;42.02;100503.50;12222180;19;20011;-79
2022/07/18 04:51:51;;;;;;;3.35;1.30;;;;;;;17.55;42.52;100501.00;12193117;19;20015;-79
2022/07/18 04:55:53;;;;;;;2.53;1.00;;;;;;;17.56;42.52;100507.41;12221755;19;20032;-79
2022/07/18 04:59:54;;;;;;;2.65;1.30;;;;;;;17.57;42.67;100509.91;12223728;19;20043;-80
2022/07/18 05:03:56;;;;;;;1.83;1.13;;;;;;;17.61;42.78;100505.44;12193165;19;20015;-79
2022/07/18 05:07:58;;;;;;;3.15;1.13;;;;;;;17.65;43.06;100502.94;12216398;19;20018;-79
2022/07/18 05:11:59;;;;;;;3.17;1.10;;;;;;;17.68;43.35;100505.16;12221080;19;20066;-80
2022/07/18 05:16:01;;;;;;;1.92;1.10;;;;;;;17.69;43.09;100499.28;12197752;19;20015;-79
2022/07/18 05:20:07;;;;;;;1.73;1.10;;;;;;;17.74;43.22;100509.63;12212379;19;20049;-78
2022/07/18 05:24:10;;;;;;;2.58;1.27;;;;;;;17.81;43.23;100512.13;12216014;19;20105;-78
2022/07/18 05:28:11;;;;;;;2.95;1.13;;;;;;;17.87;43.27;100523.00;12190607;19;20036;-79
2022/07/18 05:32:13;;;;;;;4.75;1.38;;;;;;;17.93;43.64;100516.28;12208949;19;20097;-79
2022/07/18 05:36:20;;;;;;;2.90;1.30;;;;;;;17.98;44.02;100518.25;12196507;19;20007;-78
2022/07/18 05:40:22;;;;;;;4.38;1.48;;;;;;;18.03;44.33;100526.63;12179801;19;20010;-81
2022/07/18 05:44:24;;;;;;;5.25;1.17;;;;;;;18.14;44.55;100522.66;12202222;19;20019;-81
2022/07/18 05:48:26;;;;;;;4.07;1.40;;;;;;;18.28;44.52;100517.31;12157462;19;20420;-81
2022/07/18 05:52:27;;;;;;;3.05;1.20;;;;;;;18.40;44.75;100511.44;12193990;19;20447;-81
2022/07/18 05:56:29;;;;;;;5.75;1.85;;;;;;;18.53;44.96;100512.75;12206620;19;20002;-81
2022/07/18 06:00:31;;;;;;;8.20;2.93;;;;;;;18.66;44.22;100506.56;12179933;19;20031;-81
2022/07/18 06:04:33;;;;;;;3.17;1.48;;;;;;;18.84;44.25;100519.06;12201265;19;20011;-81
2022/07/18 06:08:34;;;;;;;5.60;1.98;;;;;;;18.99;44.44;100524.56;12211998;19;20007;-81
2022/07/18 06:12:37;;;;;;;8.13;1.63;;;;;;;19.12;44.35;100520.28;12181868;19;20011;-80
2022/07/18 06:16:39;;;;;;;;;;;;;;;19.28;44.12;100518.25;12209075;19;20418;-81
2022/07/18 06:20:41;;;;;;;5.75;1.88;;;;;;;19.44;43.65;100522.56;12195541;19;20530;-82
2022/07/18 06:24:42;;;;;;;8.75;1.88;;;;;;;19.62;43.27;100520.19;12187664;19;20015;-80
2022/07/18 06:28:44;;;;;;;6.32;2.25;;;;;;;19.85;42.73;100521.41;12205162;19;20020;-82
2022/07/18 06:32:48;;;;;;;5.82;2.10;;;;;;;20.12;42.11;100520.84;12205260;19;20018;-81
2022/07/18 06:36:50;;;;;;;6.32;1.92;;;;;;;20.38;41.95;100515.81;12186799;19;20015;-81
2022/07/18 06:40:51;;;;;;;5.22;1.90;;;;;;;20.69;41.15;100516.28;12199588;19;20484;-81
2022/07/18 06:44:53;;;;;;;4.82;1.52;;;;;;;20.97;40.63;100524.84;12204899;19;20010;-81
2022/07/18 06:48:55;;;;;;;4.40;2.33;;;;;;;21.26;40.08;100516.28;12190804;19;20382;-82
2022/07/18 06:52:56;;;;;;;10.52;2.05;;;;;;;21.56;39.69;100523.41;12208761;19;20562;-82
2022/07/18 06:56:59;;;;;;;5.97;2.13;;;;;;;21.83;38.56;100520.72;12213454;19;20010;-81
2022/07/18 07:01:00;;;;;;;6.90;1.85;;;;;;;22.19;37.89;100514.44;12197679;19;20098;-81
2022/07/18 07:05:03;;;;;;;6.55;1.77;;;;;;;22.51;37.46;100519.13;12202640;19;20281;-81
2022/07/18 07:09:05;;;;;;;7.50;1.90;;;;;;;22.86;36.67;100518.69;12222291;19;20014;-81
2022/07/18 07:13:07;;;;;;;9.13;2.05;;;;;;;23.16;36.62;100512.38;12196719;19;20015;-81
2022/07/18 07:17:14;;;;;;;7.22;1.63;;;;;;;23.51;36.23;100525.91;12260897;19;20006;-84
2022/07/18 07:21:16;;;;;;;7.17;1.80;;;;;;;23.82;35.35;100521.16;12224452;19;20007;-82
2022/07/18 07:25:23;;;;;;;6.55;1.90;;;;;;;24.13;34.71;100516.72;12197011;19;20068;-82
2022/07/18 07:29:24;;;;;;;5.40;1.67;;;;;;;24.47;34.39;100522.50;12220520;19;20029;-83
2022/07/18 07:33:26;;;;;;;10.90;2.35;;;;;;;24.68;34.08;100516.28;12212284;19;20022;-83
2022/07/18 07:37:28;;;;;;;5.40;2.08;;;;;;;24.98;33.84;100508.88;12206471;19;20471;-82
2022/07/18 07:41:29;;;;;;;9.50;2.10;;;;;;;25.28;32.96;100509.91;12220402;19;20002;-83
2022/07/18 07:45:32;;;;;;;5.65;1.65;;;;;;;25.62;32.49;100513.88;12188451;19;20152;-82
2022/07/18 07:49:34;;;;;;;9.13;2.63;;;;;;;25.91;31.89;100508.38;12214225;19;20015;-83
2022/07/18 07:53:36;;;;;;;6.53;1.48;;;;;;;26.17;31.43;100506.63;12213666;19;20006;-82
2022/07/18 07:57:38;;;;;;;3.87;1.27;;;;;;;26.35;31.02;100494.94;12195742;19;20010;-83
2022/07/18 08:01:39;;;;;;;3.73;1.43;;;;;;;26.49;30.97;100497.53;12212465;19;20003;-83
2022/07/18 08:05:49;;;;;;;3.27;1.33;;;;;;;26.77;30.05;100494.19;12208970;19;20011;-82
2022/07/18 08:09:50;;;;;;;8.38;1.60;;;;;;;27.06;29.69;100487.69;12184803;19;20251;-83
2022/07/18 08:13:53;;;;;;;4.53;1.40;;;;;;;27.25;29.78;100488.06;12211310;19;20475;-84
2022/07/18 08:17:56;;;;;;;6.63;1.50;;;;;;;27.56;29.56;100486.78;12209805;19;20037;-83
2022/07/18 08:21:57;;;;;;;6.45;1.45;;;;;;;27.87;29.47;100482.63;12188578;19;20019;-82
2022/07/18 08:25:59;;;;;;;4.03;1.58;;;;;;;28.07;29.35;100478.09;12216046;19;20334;-83
2022/07/18 08:30:01;;;;;;;5.67;1.70;;;;;;;28.15;29.29;100477.97;12214702;19;20026;-84
2022/07/18 08:34:09;;;;;;;5.93;1.77;;;;;;;28.46;28.89;100476.59;12193053;19;20010;-83
2022/07/18 08:38:11;;;;;;;9.25;1.83;;;;;;;28.67;28.52;100472.81;12223295;19;20102;-85
2022/07/18 08:42:16;;;;;;;6.18;1.70;;;;;;;28.92;28.78;100467.94;12230357;19;20020;-81
2022/07/18 08:46:21;;;;;;;6.63;1.50;;;;;;;29.10;28.46;100463.66;12215965;19;20010;-80
2022/07/18 08:50:23;;;;;;;10.75;2.55;;;;;;;29.23;28.33;100458.75;12232811;19;20014;-80
2022/07/18 08:54:25;;;;;;;4.05;1.90;;;;;;;29.41;27.83;100456.44;12227006;19;20022;-80
2022/07/18 08:58:27;;;;;;;3.47;1.60;;;;;;;29.62;28.37;100465.59;12206157;19;20003;-80
2022/07/18 09:02:56;;;;;;;5.40;2.10;;;;;;;29.96;27.84;100460.44;12220717;19;20493;-80
2022/07/18 09:06:58;;;;;;;3.83;1.38;;;;;;;30.18;27.18;100456.94;12204094;19;20334;-80
2022/07/18 09:11:02;;;;;;;2.40;1.33;;;;;;;30.24;24.72;100454.66;12224797;19;20010;-79
2022/07/18 09:15:06;;;;;;;4.10;1.48;;;;;;;30.43;23.02;100457.59;12227005;19;20821;-81
2022/07/18 09:19:08;;;;;;;5.50;1.48;;;;;;;30.85;23.43;100462.69;12201336;19;20006;-81
2022/07/18 09:23:13;;;;;;;6.35;1.33;;;;;;;30.93;21.96;100451.44;12220418;19;20851;-79
2022/07/18 09:27:34;;;;;;;9.25;1.40;;;;;;;31.16;22.53;100446.69;12216722;19;20024;-79
2022/07/18 09:31:36;;;;;;;4.63;1.33;;;;;;;31.38;22.15;100450.00;12202808;19;20011;-79
2022/07/18 09:35:46;;;;;;;1.70;1.02;;;;;;;31.57;21.33;100446.31;12213394;19;20015;-79
2022/07/18 09:39:48;;;;;;;4.05;1.40;;;;;;;31.53;20.89;100446.22;12194371;19;20029;-80
2022/07/18 09:43:51;;;;;;;4.07;1.33;;;;;;;31.54;20.65;100447.88;12219798;19;20019;-80
2022/07/18 09:47:56;;;;;;;3.90;1.23;;;;;;;31.69;20.83;100441.25;12216202;19;20006;-80
2022/07/18 09:52:06;;;;;;;5.50;1.40;;;;;;;31.64;20.86;100444.41;12181147;19;20027;-79
2022/07/18 09:56:11;;;;;;;2.67;1.17;;;;;;;31.65;21.13;100437.53;12210722;19;20018;-79
2022/07/18 10:00:13;;;;;;;3.63;1.48;;;;;;;31.84;20.90;100433.81;12224158;19;20032;-79
2022/07/18 10:04:14;;;;;;;;;;;;;;;32.03;20.89;100430.09;12193169;19;20027;-79
2022/07/18 10:08:20;;;;;;;3.23;1.20;;;;;;;32.49;20.49;100430.06;12221543;19;19911;-79
2022/07/18 10:12:22;;;;;;;8.07;1.70;;;;;;;32.97;20.18;100432.38;12221347;19;20015;-80
2022/07/18 10:16:23;;;;;;;6.40;1.55;;;;;;;33.20;19.99;100429.44;12197673;19;20402;-80
2022/07/18 10:20:29;;;;;;;2.35;1.42;;;;;;;33.41;20.36;100435.41;12220240;19;20723;-80
2022/07/18 10:24:31;;;;;;;6.70;1.80;;;;;;;33.59;19.84;100432.78;12206965;19;20002;-80
2022/07/18 10:28:33;;;;;;;4.85;1.73;;;;;;;33.49;19.14;100431.41;12215253;19;20010;-79
2022/07/18 10:32:34;;;;;;;;;;;;;;;33.77;19.54;100422.38;12200376;19;20042;-81
2022/07/18 10:37:02;;;;;;;2.92;1.40;;;;;;;33.95;18.94;100421.72;12189835;19;19955;-81
2022/07/18 10:41:07;;;;;;;4.00;1.52;;;;;;;34.03;18.96;100418.56;12213153;19;20011;-80
2022/07/18 10:45:41;;;;;;;6.68;1.35;;;;;;;34.22;18.88;100433.81;12213619;19;20015;-80
2022/07/18 10:49:49;;;;;;;5.82;1.90;;;;;;;34.12;19.04;100428.81;12223177;19;20019;-81
2022/07/18 10:53:54;;;;;;;13.00;2.60;;;;;;;34.01;19.51;100420.94;12202289;19;20323;-80
2022/07/18 10:57:55;;;;;;;8.55;2.40;;;;;;;33.94;19.15;100418.03;12188817;19;20011;-81
2022/07/18 11:01:57;;;;;;;4.53;2.05;;;;;;;33.90;19.12;100411.44;12215606;19;20020;-80
2022/07/18 11:05:59;;;;;;;;;;;;;;;34.03;19.00;100412.03;12199275;19;20082;-80
2022/07/18 11:10:01;;;;;;;4.93;1.65;;;;;;;34.42;18.75;100408.66;12181012;19;19992;-80
2022/07/18 11:14:02;;;;;;;5.85;2.70;;;;;;;34.75;18.41;100403.97;12208521;19;20425;-80
2022/07/18 11:18:04;;;;;;;;;;;;;;;34.81;18.22;100397.47;12210572;19;20018;-81
2022/07/18 11:22:07;;;;;;;8.85;1.73;;;;;;;34.54;18.40;100398.91;12181699;19;19914;-81
2022/07/18 11:26:20;;;;;;;7.13;1.65;;;;;;;34.49;18.49;100398.06;12199818;19;20023;-82
2022/07/18 11:30:24;;;;;;;5.85;1.63;;;;;;;34.47;18.77;100383.31;12203625;19;20018;-82
2022/07/18 11:34:26;;;;;;;;;;;;;;;34.70;18.06;100388.00;12184895;19;20010;-81
2022/07/18 11:38:56;;;;;;;3.70;1.98;;;;;;;35.02;18.24;100373.00;12218676;19;19907;-82
2022/07/18 11:42:58;;;;;;;7.50;1.83;;;;;;;35.27;17.86;100373.13;12187830;19;20015;-82
2022/07/18 11:47:25;;;;;;;9.40;1.92;;;;;;;35.43;17.50;100367.00;12208498;19;20007;-82
2022/07/18 11:51:35;;;;;;;7.97;1.90;;;;;;;35.44;17.33;100366.63;12206753;19;20014;-81
2022/07/18 11:55:39;;;;;;;6.70;1.98;;;;;;;35.31;17.54;100365.34;12156298;19;20029;-81
2022/07/18 11:59:43;;;;;;;;;;;;;;;35.37;17.65;100355.97;12210185;19;20386;-80
2022/07/18 12:03:48;;;;;;;3.45;1.95;;;;;;;35.68;17.42;100356.44;12183996;19;19915;-81
2022/07/18 12:07:50;;;;;;;4.15;2.22;;;;;;;35.87;17.22;100358.06;12219206;19;20042;-80
2022/07/18 12:11:52;;;;;;;5.25;1.70;;;;;;;36.00;16.82;100352.78;12215140;19;20584;-80
2022/07/18 12:16:47;;;;;;;3.65;1.80;;;;;;;36.18;17.20;100347.88;12194850;19;20015;-80
2022/07/18 12:21:06;;;;;;;2.97;1.98;;;;;;;36.39;16.61;100354.78;12213684;19;20019;-80
2022/07/18 12:25:08;;;;;;;4.38;1.80;;;;;;;36.61;16.64;100353.53;12195165;19;20019;-81
2022/07/18 12:29:10;;;;;;;6.25;2.10;;;;;;;37.21;15.94;100345.09;12214994;19;20479;-80
2022/07/18 12:33:12;;;;;;;6.68;2.13;;;;;;;38.00;15.81;100340.44;12214818;19;20011;-81
2022/07/18 12:37:23;;;;;;;4.05;1.90;;;;;;;38.64;14.65;100336.13;12190797;19;20032;-81
2022/07/18 12:41:28;;;;;;;;;;;;;;;39.22;14.95;100329.63;12216715;19;20027;-82
2022/07/18 12:45:30;;;;;;;5.75;1.95;;;;;;;40.34;14.24;100315.84;12219652;19;19903;-81
2022/07/18 12:49:31;;;;;;;2.78;1.77;;;;;;;41.27;13.61;100313.09;12192103;19;20460;-81
2022/07/18 12:53:36;;;;;;;6.05;2.13;;;;;;;41.92;13.09;100306.56;12217403;19;20014;-82
2022/07/18 12:57:37;;;;;;;5.22;1.80;;;;;;;42.05;13.02;100302.47;12201994;19;20027;-83
2022/07/18 13:01:39;;;;;;;6.00;1.90;;;;;;;42.29;12.73;100303.03;12206685;19;20103;-82
2022/07/18 13:05:41;;;;;;;4.07;1.73;;;;;;;42.55;12.74;100303.16;12203593;19;20011;-82
2022/07/18 13:09:43;;;;;;;8.23;1.73;;;;;;;43.21;12.36;100292.09;12193665;19;20014;-82
2022/07/18 13:13:45;;;;;;;5.10;2.40;;;;;;;43.28;12.42;100294.75;12216891;19;20077;-82
2022/07/18 13:17:48;;;;;;;3.30;1.88;;;;;;;43.80;11.39;100281.03;12220107;19;20029;-83
2022/07/18 13:21:50;;;;;;;5.75;1.80;;;;;;;43.75;11.50;100284.53;12200801;19;20020;-82
2022/07/18 13:25:52;;;;;;;4.05;1.80;;;;;;;43.86;11.18;100274.16;12218645;19;20015;-81
2022/07/18 13:29:53;;;;;;;7.10;1.77;;;;;;;44.71;11.09;100268.59;12213675;19;20007;-82
2022/07/18 13:33:55;;;;;;;8.07;1.60;;;;;;;45.14;10.59;100269.84;12196771;19;20023;-82
2022/07/18 13:37:56;;;;;;;6.07;1.90;;;;;;;44.93;11.32;100262.78;12212581;19;20062;-81
2022/07/18 13:42:02;;;;;;;3.75;1.48;;;;;;;44.86;10.80;100260.97;12216711;19;20686;-81
2022/07/18 13:46:03;;;;;;;2.67;1.88;;;;;;;45.59;10.21;100262.59;12186155;19;20014;-81
2022/07/18 13:50:10;;;;;;;2.88;1.70;;;;;;;45.53;10.27;100255.78;12214021;19;20010;-80
2022/07/18 13:54:11;;;;;;;3.03;1.90;;;;;;;45.25;10.10;100261.50;12207723;19;20054;-80
2022/07/18 13:58:13;;;;;;;4.32;1.98;;;;;;;44.96;10.84;100256.81;12188285;19;20027;-81
2022/07/18 14:02:15;;;;;;;3.35;1.95;;;;;;;45.67;10.31;100247.25;12215250;19;20011;-81
2022/07/18 14:06:17;;;;;;;6.93;2.17;;;;;;;46.14;10.43;100248.13;12207656;19;20011;-80
2022/07/18 14:10:19;;;;;;;8.98;2.40;;;;;;;46.32;10.20;100236.50;12192603;19;20418;-82
2022/07/18 14:14:21;;;;;;;4.78;1.80;;;;;;;46.55;10.17;100246.63;12213899;19;20018;-82
2022/07/18 14:18:22;;;;;;;5.88;1.92;;;;;;;47.11;9.76;100234.84;12218540;19;20015;-81
2022/07/18 14:22:25;;;;;;;4.90;1.70;;;;;;;47.42;9.28;100232.44;12198694;19;20027;-82
2022/07/18 14:26:27;;;;;;;4.28;1.98;;;;;;;47.80;8.83;100233.81;12217277;19;20021;-82
2022/07/18 14:30:32;;;;;;;5.38;2.53;;;;;;;47.82;9.30;100228.28;12252949;19;20002;-83
2022/07/18 14:34:34;;;;;;;6.97;1.80;;;;;;;48.57;8.95;100220.50;12208285;19;20026;-82
2022/07/18 14:38:36;;;;;;;3.92;1.80;;;;;;;48.32;9.05;100222.69;12229904;19;20017;-81
2022/07/18 14:42:37;;;;;;;7.47;1.80;;;;;;;48.34;8.60;100220.09;12229238;19;20010;-83
2022/07/18 14:46:39;;;;;;;4.20;1.55;;;;;;;48.00;9.18;100217.78;12187715;19;20015;-83
2022/07/18 14:50:41;;;;;;;5.90;1.70;;;;;;;46.92;9.28;100229.06;12219415;19;20015;-82
2022/07/18 14:54:43;;;;;;;3.50;1.67;;;;;;;44.65;10.41;100207.34;12191832;19;20048;-82
2022/07/18 14:58:44;;;;;;;3.83;2.00;;;;;;;42.91;11.32;100215.97;12213388;19;20010;-81
2022/07/18 15:02:46;;;;;;;7.57;1.65;;;;;;;41.47;12.19;100212.63;12205577;19;20028;-82
2022/07/18 15:06:48;;;;;;;2.70;1.70;;;;;;;41.27;12.38;100211.88;12171505;19;20018;-82
2022/07/18 15:10:49;;;;;;;4.82;1.95;;;;;;;40.97;12.59;100202.25;12225623;19;20007;-82
2022/07/18 15:14:54;;;;;;;5.43;1.77;;;;;;;41.43;12.55;100197.41;12217242;19;20014;-82
2022/07/18 15:18:55;;;;;;;5.43;1.83;;;;;;;42.22;11.87;100201.91;12208728;19;20468;-82
2022/07/18 15:22:57;;;;;;;5.55;2.05;;;;;;;42.95;11.74;100199.28;12223430;19;20010;-81
2022/07/18 15:26:59;;;;;;;2.83;1.70;;;;;;;43.38;11.44;100200.78;12219025;19;20024;-82
2022/07/18 15:31:00;;;;;;;3.67;1.85;;;;;;;42.94;11.32;100202.66;12193833;19;20020;-82
2022/07/18 15:35:02;;;;;;;5.13;1.80;;;;;;;41.95;12.34;100196.47;12227424;19;20418;-82
2022/07/18 15:39:04;;;;;;;4.65;2.03;;;;;;;40.36;12.98;100194.94;12217210;19;20006;-82
2022/07/18 15:43:06;;;;;;;6.13;2.10;;;;;;;39.11;13.85;100185.66;12197424;19;20011;-82
2022/07/18 15:47:08;;;;;;;4.40;1.88;;;;;;;38.12;14.26;100191.53;12220260;19;20471;-82
2022/07/18 15:51:10;;;;;;;7.88;2.30;;;;;;;37.31;15.18;100183.28;12215373;19;20010;-81
2022/07/18 15:55:12;;;;;;;6.28;1.77;;;;;;;37.02;15.18;100176.94;12195372;19;20647;-82
2022/07/18 15:59:13;;;;;;;4.60;1.80;;;;;;;36.91;15.77;100172.06;12228019;19;20479;-81
2022/07/18 16:03:15;;;;;;;4.78;1.92;;;;;;;36.31;15.97;100163.78;12205579;19;20052;-81
2022/07/18 16:07:17;;;;;;;7.05;2.42;;;;;;;35.76;16.47;100159.47;12186997;19;20086;-82
2022/07/18 16:11:19;;;;;;;4.88;2.00;;;;;;;35.44;16.90;100165.22;12215529;19;20011;-82
2022/07/18 16:15:21;;;;;;;5.30;2.25;;;;;;;35.23;16.95;100155.41;12205940;19;20070;-81
2022/07/18 16:19:22;;;;;;;3.65;1.77;;;;;;;35.12;17.16;100146.81;12183840;19;20098;-82
2022/07/18 16:23:24;;;;;;;;;;;;;;;35.09;16.99;100146.81;12210846;19;20096;-82
2022/07/18 16:27:25;;;;;;;4.63;1.77;;;;;;;35.08;16.93;100140.28;12214564;19;19967;-82
2022/07/18 16:31:27;;;;;;;6.55;1.95;;;;;;;34.97;17.50;100148.00;12190193;19;20023;-82
2022/07/18 16:35:29;;;;;;;3.10;1.77;;;;;;;34.92;17.43;100139.81;12207704;19;20011;-82
2022/07/18 16:39:31;;;;;;;;;;;;;;;34.66;17.64;100141.03;12206426;19;20023;-82
2022/07/18 16:43:32;;;;;;;4.55;2.10;;;;;;;34.53;17.43;100139.72;12193669;19;20003;-82
2022/07/18 16:47:35;;;;;;;3.05;1.83;;;;;;;34.39;18.01;100137.66;12209305;19;20017;-80
2022/07/18 16:51:38;;;;;;;5.57;2.58;;;;;;;34.29;17.81;100130.66;12210044;19;20074;-80
2022/07/18 16:55:40;;;;;;;6.18;1.83;;;;;;;34.21;17.75;100124.13;12190711;19;20179;-80
2022/07/18 16:59:42;;;;;;;3.97;1.80;;;;;;;34.14;17.87;100120.41;12206422;19;20018;-80
2022/07/18 17:03:44;;;;;;;8.25;2.40;;;;;;;34.12;18.11;100108.53;12210202;19;20070;-81
2022/07/18 17:07:47;;;;;;;4.25;1.67;;;;;;;34.13;17.94;100113.88;12178255;19;20027;-81
2022/07/18 17:11:48;;;;;;;5.55;1.75;;;;;;;34.06;18.38;100111.00;12204793;19;20027;-81
2022/07/18 17:15:50;;;;;;;;;;;;;;;33.98;17.96;100109.28;12193259;19;20023;-80
2022/07/18 17:19:52;;;;;;;10.50;2.45;;;;;;;33.94;18.45;100099.88;12216093;19;19928;-80
2022/07/18 17:23:54;;;;;;;7.53;2.03;;;;;;;33.86;18.87;100104.75;12206825;19;20018;-80
2022/07/18 17:27:56;;;;;;;13.20;2.00;;;;;;;33.81;18.54;100107.97;12180576;19;20010;-82
2022/07/18 17:31:58;;;;;;;;;;;;;;;33.98;18.19;100107.25;12217915;19;20031;-80
2022/07/18 17:36:02;;;;;;;5.32;1.77;;;;;;;33.91;19.17;100101.53;12211699;19;19903;-79
2022/07/18 17:40:06;;;;;;;3.20;1.55;;;;;;;33.76;18.61;100102.66;12180009;19;20024;-79
2022/07/18 17:44:08;;;;;;;6.15;2.00;;;;;;;33.55;18.89;100101.34;12202451;19;20518;-79
2022/07/18 17:48:11;;;;;;;5.80;1.90;;;;;;;33.43;19.17;100101.59;12208783;19;20093;-79
2022/07/18 17:52:15;;;;;;;7.32;1.95;;;;;;;33.37;18.79;100094.63;12189470;19;20477;-80
2022/07/18 17:56:16;;;;;;;3.38;1.75;;;;;;;33.27;19.05;100103.97;12210220;19;20002;-81
2022/07/18 18:00:18;;;;;;;;;;;;;;;33.17;19.33;100105.53;12205961;19;20011;-80
2022/07/18 18:04:20;;;;;;;7.67;2.00;;;;;;;33.10;19.26;100099.75;12181199;19;20365;-80
2022/07/18 18:08:22;;;;;;;5.00;1.85;;;;;;;33.07;19.46;100095.66;12207504;19;20322;-80
2022/07/18 18:12:23;;;;;;;6.07;2.00;;;;;;;32.97;19.53;100099.22;12235035;19;20021;-81
2022/07/18 18:16:25;;;;;;;5.60;1.90;;;;;;;32.83;19.98;100097.06;12201746;19;20006;-79
2022/07/18 18:20:27;;;;;;;5.28;1.90;;;;;;;32.68;20.36;100101.81;12208179;19;20078;-80
2022/07/18 18:24:29;;;;;;;6.65;1.75;;;;;;;32.51;20.62;100096.75;12209155;19;20027;-79
2022/07/18 18:28:30;;;;;;;5.88;1.45;;;;;;;32.41;20.87;100094.59;12178238;19;20007;-80
2022/07/18 18:32:32;;;;;;;3.88;1.90;;;;;;;32.28;21.21;100104.63;12211285;19;20006;-81
2022/07/18 18:40:54;;;;;;;8.05;2.00;;;;;;;31.74;22.19;100104.75;12173040;19;20766;-79
2022/07/18 18:44:58;;;;;;;2.90;1.35;;;;;;;31.45;22.68;100114.94;12213515;19;20011;-79
2022/07/18 18:48:59;;;;;;;5.45;1.70;;;;;;;31.15;23.04;100106.31;12197521;19;20434;-78